Beaver Bay, MN

11:03 AM CDT on September 19, 2014 (GMT -0500)
Duluth International | Change Station
CLOSE
Current Station
Airport
Location: Duluth,
Elevation: 1427 ft
Nearby Weather Stations

Elev 1427 ft 46.84 °N, 92.19 °W | Updated 8 minutes ago

Partly Cloudy
Partly Cloudy
61 °F
Feels Like 61 °F
N
20
Wind Variable Wind from South
Gusts 26 mph

Today
High -- | Low -- °F
--% Chance of Precip.
Yesterday
High -- | Low -- °F
Precip. -- in
6:48 AM 7:09 PM
Waning Crescent, 18% visible
Pressure 29.75 in
Visibility 10.0 miles
Clouds Mostly Cloudy 1900 ft
Dew Point 52 °F
Humidity 72%
Rainfall 0.00 in
Snow Depth Not available.
UV 2 out of 12
Pollen .40 out of 12
Air Quality Not available.
Flu Activity Not available.
METAR KDLH 191555Z 19017G23KT 10SM BKN019 16/11 A2973 RMK AO2 PRESFR SLP073 T01610111 VISNO RWY 27 $

More Conditions Fewer Conditions

Pressure 29.75 in
Visibility 10.0 miles
Clouds Mostly Cloudy 1900 ft
Dew Point 52 °F
Humidity 72%
Rainfall 0.00 in
Snow Depth Not available.
UV 2 out of 12
Pollen .40 out of 12
Air Quality Not available.
Flu Activity Not available.
METAR KDLH 191555Z 19017G23KT 10SM BKN019 16/11 A2973 RMK AO2 PRESFR SLP073 T01610111 VISNO RWY 27 $

More Conditions Fewer Conditions

10-Day Weather Forecast

Almanac

Astronomy

Sep. 19, 2014 Rise Set
Actual Time 6:48 AM CDT 7:09 PM CDT
Civil Twilight 6:17 AM CDT 7:39 PM CDT
Nautical Twilight 5:41 AM CDT 8:15 PM CDT
Astronomical Twilight 5:03 AM CDT 8:53 PM CDT
Moon 2:19 AM CDT 4:49 PM CDT
Length of Visible Light 13h 22m
Length of Day
12h 20m
Tomorrow will be 3m 21s shorter.
Waning Crescent, 18% of the Moon is Illuminated
Today
Waning Crescent
Sep 24
New
Oct 1
First Quarter
Oct 8
Full
Oct 15
Last Quarter

Today's Extremes

State Highs State Lows

Community

WunderPhotos

Upload Photos

1,754,643 photos uploaded!

WunderBlogs® & News

By Dr. Jeff Masters
Director of Meteorology, Weather Underground
By Kari Strenfel
Meteorologist, Weather Underground
By Christopher C. Burt
Weather Historian, Weather Underground
September 19, 2014
September 19, 2014
September 19, 2014

Nearby

Snow Depth

Station Depth Elevation
No new snow has been reported.

Earthquake Activity

City Distance Mag. Time & Date
No recent earthquake activity has been reported nearby.
Minimum magnitude displayed is 2.5.

Coastal Water Temperatures

Place Temperature
Duluth, MN 60.1 °F

Nearby Weather Stations